Terminal Aerodrome Forecast
Issued by NWS Upton, NY

Home | Current Version | Previous Version | Text Only | Print | Product List | Glossary On
Versions: 1 2 3 4 5 6 7 8 9 10 11 12 13 14 15 16 17 18 19 20 21 22 23 24 25 26 27 28 29 30
000
FTUS41 KOKX 050830 AAA
TAFEWR
TAF AMD
KEWR 050830Z 0509/0612 01004KT P6SM FEW250
     FM051400 33008KT P6SM SCT040
     FM051700 29013G20KT P6SM SCT050
     FM052000 29016G23KT P6SM SCT050
     FM060200 33009KT P6SM FEW050
     FM060800 34006KT P6SM FEW250=

USA.gov is the U.S. government's official web portal to all federal, state and local government web resources and services.